createdAt,value
2022-11-26T00:02:15.937Z,99435.13
2022-11-26T00:05:28.936Z,99442.09
2022-11-26T00:08:41.791Z,99442.58
2022-11-26T00:11:53.679Z,99437.92
2022-11-26T00:15:06.243Z,99443.00
2022-11-26T00:18:18.017Z,99441.89
2022-11-26T00:21:32.373Z,99436.57
2022-11-26T00:24:44.170Z,99439.20
2022-11-26T00:27:58.715Z,99441.55
2022-11-26T00:31:16.101Z,99439.52
2022-11-26T00:34:27.982Z,99447.22
2022-11-26T00:37:44.484Z,99455.96
2022-11-26T00:40:56.531Z,99447.88
2022-11-26T00:44:09.319Z,99447.98
2022-11-26T00:47:23.908Z,99457.92
2022-11-26T00:50:41.264Z,99454.44
2022-11-26T00:53:54.235Z,99458.75
2022-11-26T00:57:06.057Z,99456.05
2022-11-26T01:00:26.404Z,99459.35
2022-11-26T01:03:38.088Z,99465.47
2022-11-26T01:06:51.515Z,99465.47
2022-11-26T01:10:03.071Z,99466.22
2022-11-26T01:13:18.196Z,99465.27
2022-11-26T01:16:32.548Z,99468.66
2022-11-26T01:19:44.202Z,99458.81
2022-11-26T01:22:56.470Z,99467.30
2022-11-26T01:26:08.266Z,99462.80
2022-11-26T01:29:24.912Z,99465.43
2022-11-26T01:32:36.758Z,99467.87
2022-11-26T01:35:48.506Z,99473.80
2022-11-26T01:39:02.574Z,99473.80
2022-11-26T01:42:24.182Z,99479.81
2022-11-26T01:45:36.343Z,99474.39
2022-11-26T01:48:48.563Z,99465.65
2022-11-26T01:52:07.255Z,99468.38
2022-11-26T01:55:22.012Z,99474.55
2022-11-26T01:58:40.186Z,99487.80
2022-11-26T02:01:53.282Z,99486.19
2022-11-26T02:05:09.661Z,99481.02
2022-11-26T02:08:21.445Z,99480.16
2022-11-26T02:11:33.158Z,99475.86
2022-11-26T02:14:48.040Z,99484.86
2022-11-26T02:18:05.294Z,99481.56
2022-11-26T02:21:22.948Z,99481.66
2022-11-26T02:24:47.798Z,99484.28
2022-11-26T02:28:21.790Z,99493.76
2022-11-26T02:31:39.228Z,99488.44
2022-11-26T02:34:56.983Z,99491.83
2022-11-26T02:38:13.111Z,99492.49
2022-11-26T02:41:25.049Z,99501.05
2022-11-26T02:44:42.361Z,99493.91
2022-11-26T02:47:58.608Z,99485.42
2022-11-26T02:51:14.946Z,99494.67
2022-11-26T02:54:28.615Z,99500.80
2022-11-26T02:57:45.914Z,99494.48
2022-11-26T03:00:59.986Z,99501.55
2022-11-26T03:04:16.054Z,99500.70
2022-11-26T03:07:28.908Z,99502.56
2022-11-26T03:10:40.970Z,99508.69
2022-11-26T03:13:53.483Z,99507.83
2022-11-26T03:17:05.180Z,99510.27
2022-11-26T03:20:17.589Z,99510.36
2022-11-26T03:23:29.138Z,99510.46
2022-11-26T03:26:40.980Z,99511.38
2022-11-26T03:29:52.444Z,99509.45
2022-11-26T03:33:04.072Z,99509.34
2022-11-26T03:36:16.671Z,99519.68
2022-11-26T03:39:28.526Z,99516.13
2022-11-26T03:42:40.367Z,99524.78
2022-11-26T03:45:52.195Z,99523.93
2022-11-26T03:49:03.975Z,99519.33
2022-11-26T03:52:15.920Z,99515.02
2022-11-26T03:55:27.517Z,99514.83
2022-11-26T03:58:39.460Z,99512.20
2022-11-26T04:01:52.152Z,99518.31
2022-11-26T04:05:04.452Z,99522.72
2022-11-26T04:08:16.337Z,99525.45
2022-11-26T04:11:28.155Z,99526.30
2022-11-26T04:14:39.935Z,99516.44
2022-11-26T04:17:51.776Z,99528.69
2022-11-26T04:21:04.570Z,99520.69
2022-11-26T04:24:19.129Z,99532.08
2022-11-26T04:27:30.959Z,99534.61
2022-11-26T04:30:42.474Z,99537.23
2022-11-26T04:33:54.401Z,99534.61
2022-11-26T04:37:06.808Z,99534.77
2022-11-26T04:40:20.964Z,99534.20
2022-11-26T04:43:32.769Z,99540.48
2022-11-26T04:46:44.504Z,99544.97
2022-11-26T04:49:56.204Z,99545.98
2022-11-26T04:53:07.836Z,99547.03
2022-11-26T04:56:19.522Z,99553.13
2022-11-26T04:59:31.497Z,99553.13
2022-11-26T05:02:43.203Z,99558.32
2022-11-26T05:05:55.008Z,99560.09
2022-11-26T05:09:07.087Z,99568.91
2022-11-26T05:12:18.614Z,99562.88
2022-11-26T05:15:30.496Z,99564.75
2022-11-26T05:18:42.199Z,99574.45
2022-11-26T05:21:53.765Z,99570.30
2022-11-26T05:25:05.574Z,99570.35
2022-11-26T05:28:17.247Z,99574.13
2022-11-26T05:31:30.362Z,99582.16
2022-11-26T05:34:41.983Z,99582.50
2022-11-26T05:37:53.584Z,99586.08
2022-11-26T05:41:05.232Z,99581.83
2022-11-26T05:44:16.902Z,99591.49
2022-11-26T05:47:28.512Z,99592.44
2022-11-26T05:50:41.497Z,99603.02
2022-11-26T05:53:53.226Z,99599.63
2022-11-26T05:57:04.854Z,99602.34
2022-11-26T06:00:21.314Z,99604.39
2022-11-26T06:03:33.008Z,99605.73
2022-11-26T06:06:44.730Z,99610.31
2022-11-26T06:09:56.369Z,99616.75
2022-11-26T06:13:08.035Z,99616.03
2022-11-26T06:16:20.843Z,99619.76
2022-11-26T06:19:33.114Z,99625.19
2022-11-26T06:22:47.088Z,99633.22
2022-11-26T06:25:58.813Z,99636.80
2022-11-26T06:29:10.917Z,99641.28
2022-11-26T06:32:22.538Z,99637.88
2022-11-26T06:35:34.499Z,99639.74
2022-11-26T06:38:46.376Z,99644.00
2022-11-26T06:41:57.997Z,99649.94
2022-11-26T06:45:10.822Z,99644.50
2022-11-26T06:48:22.512Z,99650.38
2022-11-26T06:51:34.530Z,99646.75
2022-11-26T06:54:46.742Z,99647.25
2022-11-26T06:57:58.961Z,99631.84
2022-11-26T07:01:17.855Z,99640.88
2022-11-26T07:04:29.540Z,99646.30
2022-11-26T07:07:44.186Z,99651.65
2022-11-26T07:10:55.942Z,99657.86
2022-11-26T07:14:08.176Z,99652.08
2022-11-26T07:17:19.803Z,99665.31
2022-11-26T07:20:32.061Z,99661.23
2022-11-26T07:23:44.584Z,99667.58
2022-11-26T07:26:56.215Z,99673.16
2022-11-26T07:30:08.264Z,99676.14
2022-11-26T07:33:19.874Z,99684.16
2022-11-26T07:36:34.433Z,99684.41
2022-11-26T07:39:46.222Z,99684.21
2022-11-26T07:42:57.921Z,99678.42
2022-11-26T07:46:13.042Z,99676.70
2022-11-26T07:49:24.790Z,99665.05
2022-11-26T07:52:36.533Z,99677.66
2022-11-26T07:55:48.445Z,99684.11
2022-11-26T07:59:00.378Z,99687.08
2022-11-26T08:02:13.158Z,99701.18
2022-11-26T08:05:27.720Z,99697.23
2022-11-26T08:08:41.007Z,99705.77
2022-11-26T08:11:52.616Z,99698.95
2022-11-26T08:15:04.173Z,99704.05
2022-11-26T08:18:15.775Z,99709.69
2022-11-26T08:21:27.868Z,99716.08
2022-11-26T08:24:40.347Z,99718.02
2022-11-26T08:27:52.699Z,99717.55
2022-11-26T08:31:12.056Z,99724.00
2022-11-26T08:34:24.251Z,99722.41
2022-11-26T08:37:36.127Z,99722.47
2022-11-26T08:40:47.877Z,99728.80
2022-11-26T08:44:08.069Z,99720.95
2022-11-26T08:47:13.621Z,99727.73
2022-11-26T08:50:25.732Z,99722.47
2022-11-26T08:53:40.294Z,99725.39
2022-11-26T08:56:52.086Z,99734.22
2022-11-26T09:00:05.484Z,99739.14
2022-11-26T09:03:17.265Z,99744.41
2022-11-26T09:06:32.901Z,99748.82
2022-11-26T09:09:44.709Z,99747.99
2022-11-26T09:12:56.711Z,99754.59
2022-11-26T09:16:08.838Z,99750.09
2022-11-26T09:19:22.491Z,99760.13
2022-11-26T09:22:34.610Z,99755.61
2022-11-26T09:25:46.990Z,99758.05
2022-11-26T09:28:59.384Z,99765.04
2022-11-26T09:32:32.468Z,99767.82
2022-11-26T09:35:25.954Z,99768.48
2022-11-26T09:38:37.969Z,99763.20
2022-11-26T09:41:56.102Z,99765.69
2022-11-26T09:45:25.500Z,99767.30
2022-11-26T09:48:39.889Z,99768.68
2022-11-26T09:51:55.911Z,99772.75
2022-11-26T09:55:17.473Z,99763.06
2022-11-26T09:58:34.151Z,99761.03
2022-11-26T10:01:48.013Z,99770.36
2022-11-26T10:05:00.141Z,99763.20
2022-11-26T10:08:24.235Z,99766.34
2022-11-26T10:11:44.332Z,99766.84
2022-11-26T10:15:04.320Z,99760.81
2022-11-26T10:18:23.106Z,99762.49
2022-11-26T10:21:58.189Z,99766.48
2022-11-26T10:24:55.759Z,99770.50
2022-11-26T10:28:12.889Z,99769.84
2022-11-26T10:31:26.619Z,99774.25
2022-11-26T10:34:43.649Z,99768.48
2022-11-26T10:37:56.509Z,99771.81
2022-11-26T10:41:08.205Z,99774.36
2022-11-26T10:44:46.828Z,99778.20
2022-11-26T10:47:58.934Z,99775.57
2022-11-26T10:51:17.653Z,99774.81
2022-11-26T10:54:38.254Z,99774.45
2022-11-26T10:57:55.968Z,99781.81
2022-11-26T11:01:12.606Z,99780.49
2022-11-26T11:04:33.688Z,99772.98
2022-11-26T11:07:51.174Z,99779.01
2022-11-26T11:11:05.432Z,99776.11
2022-11-26T11:14:27.727Z,99782.34
2022-11-26T11:17:42.834Z,99768.03
2022-11-26T11:21:03.491Z,99769.91
2022-11-26T11:24:20.764Z,99769.97
2022-11-26T11:27:37.539Z,99782.34
2022-11-26T11:30:50.511Z,99766.13
2022-11-26T11:34:19.983Z,99768.75
2022-11-26T11:37:31.881Z,99775.72
2022-11-26T11:40:47.860Z,99774.03
2022-11-26T11:44:04.624Z,99781.84
2022-11-26T11:47:38.948Z,99778.25
2022-11-26T11:50:55.766Z,99784.58
2022-11-26T11:54:19.949Z,99789.86
2022-11-26T11:57:53.269Z,99788.14
2022-11-26T12:01:11.024Z,99787.98
2022-11-26T12:04:47.164Z,99784.13
2022-11-26T12:08:05.813Z,99780.82
2022-11-26T12:11:40.563Z,99780.82
2022-11-26T12:14:57.112Z,99784.13
2022-11-26T12:18:16.407Z,99776.01
2022-11-26T12:21:35.528Z,99783.76
2022-11-26T12:24:53.786Z,99779.73
2022-11-26T12:28:11.426Z,99781.61
2022-11-26T12:31:29.293Z,99787.70
2022-11-26T12:34:46.721Z,99781.30
2022-11-26T12:38:05.111Z,99783.13
2022-11-26T12:41:21.383Z,99784.53
2022-11-26T12:44:40.634Z,99781.70
2022-11-26T12:47:59.778Z,99784.23
2022-11-26T12:51:20.810Z,99778.95
2022-11-26T12:54:38.358Z,99782.94
2022-11-26T12:57:55.638Z,99782.18
2022-11-26T13:01:05.985Z,99779.64
2022-11-26T13:07:49.082Z,99786.88
2022-11-26T13:11:26.225Z,99786.11
2022-11-26T13:14:42.643Z,99791.59
2022-11-26T13:17:56.175Z,99794.79
2022-11-26T13:21:27.254Z,99793.11
2022-11-26T13:25:02.291Z,99795.84
2022-11-26T13:28:25.739Z,99798.39
2022-11-26T13:31:54.495Z,99796.50
2022-11-26T13:35:20.673Z,99805.17
2022-11-26T13:38:41.028Z,99804.22
2022-11-26T13:42:17.733Z,99801.78
2022-11-26T13:46:05.764Z,99809.59
2022-11-26T13:49:22.659Z,99800.92
2022-11-26T13:52:40.656Z,99807.06
2022-11-26T13:55:58.002Z,99795.75
2022-11-26T13:59:16.181Z,99808.19
2022-11-26T14:02:47.586Z,99809.20
2022-11-26T14:06:16.210Z,99809.41
2022-11-26T14:09:56.239Z,99813.27
2022-11-26T14:13:24.505Z,99813.27
2022-11-26T14:16:52.749Z,99818.34
2022-11-26T14:20:17.632Z,99808.55
2022-11-26T14:23:53.159Z,99818.34
2022-11-26T14:27:05.225Z,99817.69
2022-11-26T14:30:28.953Z,99820.42
2022-11-26T14:33:43.061Z,99822.47
2022-11-26T14:37:03.725Z,99817.20
2022-11-26T14:40:29.408Z,99821.55
2022-11-26T14:43:41.403Z,99824.25
2022-11-26T14:46:57.039Z,99830.48
2022-11-26T14:50:15.079Z,99823.33
2022-11-26T14:53:29.877Z,99827.58
2022-11-26T14:56:46.405Z,99833.78
2022-11-26T15:00:08.388Z,99834.73
2022-11-26T15:03:31.553Z,99835.56
2022-11-26T15:06:49.106Z,99840.08
2022-11-26T15:10:14.696Z,99846.31
2022-11-26T15:13:32.541Z,99846.31
2022-11-26T15:16:47.862Z,99843.58
2022-11-26T15:20:02.228Z,99848.85
2022-11-26T15:23:19.343Z,99854.13
2022-11-26T15:26:36.540Z,99854.98
2022-11-26T15:29:57.485Z,99836.02
2022-11-26T15:33:15.342Z,99855.65
2022-11-26T15:36:27.207Z,99857.36
2022-11-26T15:39:39.210Z,99856.61
2022-11-26T15:42:54.208Z,99867.92
2022-11-26T15:46:08.981Z,99862.64
2022-11-26T15:49:29.152Z,99859.05
2022-11-26T15:52:43.078Z,99866.04
2022-11-26T15:55:55.790Z,99868.68
2022-11-26T15:59:13.658Z,99866.70
2022-11-26T16:02:28.990Z,99867.36
2022-11-26T16:05:44.255Z,99865.65
2022-11-26T16:09:17.886Z,99863.96
2022-11-26T16:12:40.851Z,99878.11
2022-11-26T16:15:58.643Z,99869.44
2022-11-26T16:19:15.655Z,99873.00
2022-11-26T16:22:30.677Z,99879.99
2022-11-26T16:25:42.470Z,99887.05
2022-11-26T16:28:54.459Z,99886.95
2022-11-26T16:32:08.036Z,99895.83
2022-11-26T16:35:44.095Z,99894.87
2022-11-26T16:38:34.709Z,99899.22
2022-11-26T16:41:46.784Z,99898.37
2022-11-26T16:48:19.548Z,99898.37
2022-11-26T16:51:31.344Z,99904.50
2022-11-26T16:54:43.315Z,99909.78
2022-11-26T16:57:58.306Z,99908.26
2022-11-26T17:01:10.479Z,99910.89
2022-11-26T17:04:22.766Z,99912.58
2022-11-26T17:07:40.558Z,99911.81
2022-11-26T17:10:54.037Z,99922.56
2022-11-26T17:14:05.682Z,99918.97
2022-11-26T17:17:23.858Z,99922.56
2022-11-26T17:20:35.722Z,99928.66
2022-11-26T17:23:47.615Z,99932.26
2022-11-26T17:26:59.313Z,99931.59
2022-11-26T17:30:14.965Z,99938.74
2022-11-26T17:33:28.367Z,99938.05
2022-11-26T17:36:42.337Z,99938.23
2022-11-26T17:39:54.512Z,99940.27
2022-11-26T17:43:06.341Z,99942.75
2022-11-26T17:46:24.022Z,99948.69
2022-11-26T17:49:35.926Z,99954.50
2022-11-26T17:52:48.587Z,99949.13
2022-11-26T17:56:00.426Z,99953.55
2022-11-26T17:59:15.523Z,99955.77
2022-11-26T18:02:26.145Z,99967.33
2022-11-26T18:05:41.987Z,99969.20
2022-11-26T18:08:52.894Z,99968.03
2022-11-26T18:12:05.661Z,99971.84
2022-11-26T18:15:25.666Z,99981.28
2022-11-26T18:18:37.495Z,99975.67
2022-11-26T18:21:50.102Z,99975.67
2022-11-26T18:25:02.062Z,99973.73
2022-11-26T18:28:16.304Z,99979.02
2022-11-26T18:31:28.658Z,99972.45
2022-11-26T18:34:40.928Z,99977.81
2022-11-26T18:37:52.624Z,99981.13
2022-11-26T18:41:08.497Z,99983.86
2022-11-26T18:44:20.338Z,99978.59
2022-11-26T18:47:35.374Z,99974.99
2022-11-26T18:50:47.123Z,99977.63
2022-11-26T18:53:59.064Z,99988.27
2022-11-26T18:57:10.821Z,99989.77
2022-11-26T19:00:24.424Z,99996.38
2022-11-26T19:03:38.691Z,99994.84
2022-11-26T19:06:49.998Z,100008.02
2022-11-26T19:10:01.808Z,100006.48
2022-11-26T19:13:13.770Z,100016.92
2022-11-26T19:16:27.901Z,100022.20
2022-11-26T19:19:40.573Z,100014.38
2022-11-26T19:22:52.861Z,100021.19
2022-11-26T19:26:06.859Z,100035.14
2022-11-26T19:29:19.604Z,100041.27
2022-11-26T19:32:32.728Z,100044.59
2022-11-26T19:35:47.401Z,100041.95
2022-11-26T19:39:04.302Z,100050.05
2022-11-26T19:42:16.477Z,100056.41
2022-11-26T19:45:29.202Z,100063.54
2022-11-26T19:48:43.737Z,100068.81
2022-11-26T19:51:55.614Z,100069.95
2022-11-26T19:55:07.958Z,100065.72
2022-11-26T19:58:19.803Z,100078.13
2022-11-26T20:01:34.383Z,100089.61
2022-11-26T20:04:46.582Z,100085.42
2022-11-26T20:07:58.386Z,100095.02
2022-11-26T20:11:12.329Z,100087.52
2022-11-26T20:14:24.374Z,100086.82
2022-11-26T20:17:36.178Z,100094.09
2022-11-26T20:20:48.873Z,100084.33
2022-11-26T20:24:04.402Z,100090.06
2022-11-26T20:27:16.267Z,100090.84
2022-11-26T20:30:28.704Z,100104.00
2022-11-26T20:33:42.326Z,100105.72
2022-11-26T20:36:54.890Z,100111.91
2022-11-26T20:40:07.099Z,100106.72
2022-11-26T20:43:19.029Z,100120.06
2022-11-26T20:46:31.733Z,100112.98
2022-11-26T20:49:43.802Z,100115.63
2022-11-26T20:52:55.718Z,100117.56
2022-11-26T20:56:08.527Z,100120.89
2022-11-26T20:59:20.299Z,100116.40
2022-11-26T21:02:33.155Z,100107.72
2022-11-26T21:05:45.639Z,100112.08
2022-11-26T21:08:57.492Z,100106.03
2022-11-26T21:12:10.705Z,100118.34
2022-11-26T21:15:23.766Z,100118.42
2022-11-26T21:18:35.979Z,100115.10
2022-11-26T21:21:47.719Z,100120.42
2022-11-26T21:24:59.719Z,100117.01
2022-11-26T21:28:15.072Z,100120.59
2022-11-26T21:31:28.324Z,100120.59
2022-11-26T21:34:41.065Z,100124.22
2022-11-26T21:37:52.789Z,100117.34
2022-11-26T21:41:11.681Z,100126.02
2022-11-26T21:44:23.747Z,100128.18
2022-11-26T21:47:36.566Z,100129.00
2022-11-26T21:50:48.297Z,100138.92
2022-11-26T21:54:01.843Z,100141.86
2022-11-26T21:57:13.670Z,100148.28
2022-11-26T22:00:26.615Z,100146.42
2022-11-26T22:03:38.991Z,100152.89
2022-11-26T22:06:53.255Z,100152.11
2022-11-26T22:10:05.200Z,100158.31
2022-11-26T22:13:16.962Z,100160.17
2022-11-26T22:16:31.412Z,100157.38
2022-11-26T22:19:43.138Z,100169.26
2022-11-26T22:22:54.846Z,100163.17
2022-11-26T22:26:06.932Z,100173.61
2022-11-26T22:29:21.627Z,100173.12
2022-11-26T22:32:33.533Z,100174.77
2022-11-26T22:35:45.876Z,100173.90
2022-11-26T22:38:58.737Z,100171.11
2022-11-26T22:42:10.919Z,100179.29
2022-11-26T22:45:23.354Z,100184.55
2022-11-26T22:48:35.176Z,100178.66
2022-11-26T22:51:47.866Z,100180.36
2022-11-26T22:54:59.601Z,100181.30
2022-11-26T22:58:11.560Z,100183.93
2022-11-26T23:01:30.282Z,100186.56
2022-11-26T23:04:42.229Z,100179.73
2022-11-26T23:07:54.097Z,100191.32
2022-11-26T23:11:10.656Z,100185.12
2022-11-26T23:14:22.374Z,100190.38
2022-11-26T23:17:34.436Z,100191.16
2022-11-26T23:20:47.252Z,100189.55
2022-11-26T23:23:59.615Z,100185.27
2022-11-26T23:27:11.256Z,100181.08
2022-11-26T23:30:24.582Z,100184.77
2022-11-26T23:33:37.349Z,100180.50
2022-11-26T23:36:49.105Z,100181.36
2022-11-26T23:40:01.006Z,100186.41
2022-11-26T23:43:12.757Z,100176.02
2022-11-26T23:46:28.106Z,100198.91
2022-11-26T23:49:40.226Z,100192.66
2022-11-26T23:52:52.198Z,100191.95
2022-11-26T23:56:10.087Z,100192.03
2022-11-26T23:59:22.531Z,100193.72
